Time;durP1;ratioP1;P1;durP2;ratioP2;P2;SDS_P1;SDS_P2;PMS_P1;PMS_P2;Temp;Humidity;BMP_temperature;BMP_pressure;BME280_temperature;BME280_humidity;BME280_pressure;Samples;Min_cycle;Max_cycle;Signal;HPM_P1;HPM_P2
2023/06/16 00:02:17;;;;;;;3.30;2.67;;;;;25.30;101797.00;;;;5087783;28;20186;-78
2023/06/16 00:04:44;;;;;;;2.28;2.08;;;;;25.30;101799.00;;;;5085007;28;20196;-78
2023/06/16 00:07:13;;;;;;;4.55;2.53;;;;;25.20;101799.00;;;;5088482;28;20226;-78
2023/06/16 00:09:40;;;;;;;3.00;2.50;;;;;25.20;101799.00;;;;5086050;28;20194;-78
2023/06/16 00:12:08;;;;;;;3.10;2.50;;;;;25.20;101798.00;;;;5087069;28;20197;-79
2023/06/16 00:14:35;;;;;;;3.70;2.00;;;;;25.20;101792.00;;;;5087804;28;20217;-79
2023/06/16 00:17:05;;;;;;;3.85;2.30;;;;;25.10;101794.00;;;;5088314;28;20205;-79
2023/06/16 00:19:33;;;;;;;3.97;2.08;;;;;25.10;101801.00;;;;5087360;28;20194;-78
2023/06/16 00:22:02;;;;;;;3.72;2.25;;;;;25.10;101791.00;;;;5072094;28;20725;-78
2023/06/16 00:24:32;;;;;;;3.40;2.25;;;;;25.00;101794.00;;;;5086431;28;20674;-78
2023/06/16 00:26:59;;;;;;;2.80;2.10;;;;;25.00;101789.00;;;;5087863;28;20710;-78
2023/06/16 00:29:26;;;;;;;3.53;2.03;;;;;25.00;101787.00;;;;5086990;28;20224;-78
2023/06/16 00:31:55;;;;;;;4.10;1.98;;;;;25.00;101794.00;;;;5086878;28;20237;-78
2023/06/16 00:34:22;;;;;;;2.70;2.17;;;;;24.90;101792.00;;;;5086177;28;21117;-78
2023/06/16 00:36:49;;;;;;;2.00;1.80;;;;;24.90;101784.00;;;;5086380;28;20206;-78
2023/06/16 00:39:17;;;;;;;2.72;2.22;;;;;24.90;101791.00;;;;5074244;28;20194;-78
2023/06/16 00:41:46;;;;;;;5.55;2.67;;;;;24.80;101785.00;;;;5086593;28;20198;-78
2023/06/16 00:44:13;;;;;;;2.22;1.88;;;;;24.80;101787.00;;;;5086509;28;20193;-79
2023/06/16 00:46:40;;;;;;;3.22;2.25;;;;;24.80;101785.00;;;;5087853;28;20194;-78
2023/06/16 00:49:08;;;;;;;5.38;2.63;;;;;24.80;101789.00;;;;5087203;28;20229;-78
2023/06/16 00:51:36;;;;;;;2.97;2.22;;;;;24.70;101787.00;;;;5087740;28;20211;-79
2023/06/16 00:54:04;;;;;;;2.63;2.30;;;;;24.70;101785.00;;;;5086131;28;20226;-79
2023/06/16 00:56:32;;;;;;;2.50;2.17;;;;;24.70;101785.00;;;;5087343;28;20276;-78
2023/06/16 00:59:01;;;;;;;4.95;2.47;;;;;24.60;101779.00;;;;5087630;28;20210;-78
2023/06/16 01:01:30;;;;;;;5.03;2.65;;;;;24.60;101777.00;;;;5087244;28;20211;-79
2023/06/16 01:03:58;;;;;;;3.47;2.40;;;;;24.60;101780.00;;;;5084146;28;20311;-78
2023/06/16 01:06:41;;;;;;;3.05;2.50;;;;;24.50;101777.00;;;;5087346;28;20603;-78
2023/06/16 01:09:16;;;;;;;4.03;2.58;;;;;24.50;101775.00;;;;5087880;28;20186;-78
2023/06/16 01:11:52;;;;;;;4.57;2.30;;;;;24.50;101783.00;;;;5089718;28;20197;-78
2023/06/16 01:14:28;;;;;;;2.70;1.92;;;;;24.40;101776.00;;;;5090978;28;20256;-78
2023/06/16 01:16:57;;;;;;;7.07;2.42;;;;;24.40;101767.00;;;;5089121;28;20186;-78
2023/06/16 01:19:29;;;;;;;2.75;2.33;;;;;24.40;101768.00;;;;5090182;28;20217;-78
2023/06/16 01:22:07;;;;;;;5.32;2.75;;;;;24.30;101770.00;;;;5089386;28;20209;-78
2023/06/16 01:24:36;;;;;;;3.47;2.35;;;;;24.30;101773.00;;;;5090463;28;20205;-78
2023/06/16 01:27:08;;;;;;;3.22;2.33;;;;;24.30;101776.00;;;;5091561;28;20932;-78
2023/06/16 01:29:37;;;;;;;5.93;2.50;;;;;24.30;101771.00;;;;5079835;28;20619;-78
2023/06/16 01:32:08;;;;;;;8.15;2.75;;;;;24.30;101780.00;;;;5088659;28;20218;-79
2023/06/16 01:34:36;;;;;;;4.55;2.60;;;;;24.20;101781.00;;;;5090563;28;20225;-78
2023/06/16 01:37:05;;;;;;;2.70;2.40;;;;;24.20;101778.00;;;;5081670;28;20202;-79
2023/06/16 01:39:35;;;;;;;5.60;2.30;;;;;24.20;101780.00;;;;5077196;28;20194;-78
2023/06/16 01:42:03;;;;;;;8.88;2.35;;;;;24.10;101782.00;;;;5089265;28;20209;-78
2023/06/16 01:44:33;;;;;;;3.38;2.25;;;;;24.10;101780.00;;;;5089492;28;20190;-79
2023/06/16 01:47:01;;;;;;;4.57;2.90;;;;;24.10;101782.00;;;;5086405;28;20191;-78
2023/06/16 01:49:28;;;;;;;7.60;3.00;;;;;24.00;101776.00;;;;5089859;28;20202;-78
2023/06/16 01:51:55;;;;;;;5.43;3.25;;;;;24.00;101782.00;;;;5090557;28;20198;-78
2023/06/16 01:54:23;;;;;;;4.05;2.63;;;;;24.00;101779.00;;;;5090527;28;20305;-78
2023/06/16 01:56:51;;;;;;;3.78;2.75;;;;;23.90;101778.00;;;;5089118;28;20202;-78
2023/06/16 01:59:19;;;;;;;4.10;2.50;;;;;23.90;101785.00;;;;5090729;28;20198;-78
2023/06/16 02:01:51;;;;;;;4.30;2.65;;;;;23.80;101778.00;;;;5090568;28;20202;-79
2023/06/16 02:04:22;;;;;;;3.50;2.80;;;;;23.80;101784.00;;;;5082279;28;20191;-78
2023/06/16 02:07:00;;;;;;;3.15;2.50;;;;;23.80;101779.00;;;;5086928;28;20419;-78
2023/06/16 02:09:28;;;;;;;9.13;2.40;;;;;23.80;101782.00;;;;5078421;28;20194;-78
2023/06/16 02:11:58;;;;;;;2.47;2.20;;;;;23.70;101778.00;;;;5090562;28;20679;-78
2023/06/16 02:14:27;;;;;;;5.07;2.78;;;;;23.70;101774.00;;;;5089413;28;20222;-79
2023/06/16 02:16:56;;;;;;;3.30;2.80;;;;;23.70;101782.00;;;;5088681;28;20202;-78
2023/06/16 02:19:23;;;;;;;5.63;2.75;;;;;23.70;101772.00;;;;5088425;28;20221;-79
2023/06/16 02:21:50;;;;;;;3.55;2.80;;;;;23.60;101784.00;;;;5087103;28;20199;-79
2023/06/16 02:24:18;;;;;;;3.05;2.75;;;;;23.60;101776.00;;;;5088109;28;20209;-79
2023/06/16 02:26:45;;;;;;;3.63;3.13;;;;;23.60;101783.00;;;;5084909;28;20291;-78
2023/06/16 02:29:14;;;;;;;5.57;3.13;;;;;23.50;101772.00;;;;5088869;28;20205;-79
2023/06/16 02:31:46;;;;;;;3.55;2.50;;;;;23.50;101779.00;;;;5084458;28;21081;-79
2023/06/16 02:34:13;;;;;;;3.30;2.95;;;;;23.50;101780.00;;;;5089789;28;20213;-78
2023/06/16 02:36:41;;;;;;;3.15;2.63;;;;;23.50;101776.00;;;;5086529;28;20203;-79
2023/06/16 02:39:08;;;;;;;4.05;2.45;;;;;23.40;101784.00;;;;5087449;28;20205;-78
2023/06/16 02:41:36;;;;;;;3.13;2.30;;;;;23.40;101780.00;;;;5087796;28;20201;-78
2023/06/16 02:44:04;;;;;;;3.80;2.58;;;;;23.40;101775.00;;;;5088017;28;20214;-78
2023/06/16 02:46:32;;;;;;;4.00;3.13;;;;;23.30;101776.00;;;;5088074;28;20199;-78
2023/06/16 02:48:59;;;;;;;2.60;2.30;;;;;23.30;101776.00;;;;5088788;28;20202;-79
2023/06/16 02:51:27;;;;;;;4.00;2.67;;;;;23.30;101773.00;;;;5084121;28;20209;-78
2023/06/16 02:53:54;;;;;;;3.95;2.63;;;;;23.30;101777.00;;;;5083498;28;20217;-78
2023/06/16 02:56:23;;;;;;;3.53;2.72;;;;;23.30;101776.00;;;;5087602;28;20202;-78
2023/06/16 02:58:51;;;;;;;3.72;2.88;;;;;23.20;101776.00;;;;5087736;28;20209;-78
2023/06/16 03:01:21;;;;;;;3.90;2.70;;;;;23.20;101775.00;;;;5087336;28;20202;-78
2023/06/16 03:03:51;;;;;;;3.00;2.63;;;;;23.20;101770.00;;;;5088246;28;20214;-78
2023/06/16 03:06:19;;;;;;;3.95;2.92;;;;;23.20;101765.00;;;;5086488;28;20249;-78
2023/06/16 03:08:47;;;;;;;5.72;2.53;;;;;23.10;101767.00;;;;5087845;28;20198;-78
2023/06/16 03:11:15;;;;;;;3.85;2.65;;;;;23.10;101763.00;;;;5082823;28;20201;-78
2023/06/16 03:13:42;;;;;;;3.75;3.03;;;;;23.10;101764.00;;;;5087667;28;20226;-78
2023/06/16 03:16:09;;;;;;;2.45;2.15;;;;;23.10;101764.00;;;;5087096;28;20202;-78
2023/06/16 03:18:37;;;;;;;2.90;2.60;;;;;23.10;101769.00;;;;5087165;28;20222;-78
2023/06/16 03:21:05;;;;;;;3.22;2.25;;;;;23.00;101765.00;;;;5088709;28;20222;-78
2023/06/16 03:23:33;;;;;;;3.60;2.50;;;;;23.00;101774.00;;;;5087632;28;20213;-77
2023/06/16 03:26:00;;;;;;;4.05;2.47;;;;;23.00;101772.00;;;;5088472;28;20209;-78
2023/06/16 03:28:27;;;;;;;5.32;2.38;;;;;23.00;101772.00;;;;5085246;28;20202;-79
2023/06/16 03:30:54;;;;;;;3.72;2.67;;;;;22.90;101773.00;;;;5087885;28;20230;-78
2023/06/16 03:33:22;;;;;;;4.43;2.90;;;;;22.90;101771.00;;;;5087583;28;20275;-78
2023/06/16 03:35:50;;;;;;;4.30;3.08;;;;;22.90;101771.00;;;;5088288;28;20718;-78
2023/06/16 03:38:20;;;;;;;3.10;2.80;;;;;22.90;101774.00;;;;5089398;28;20186;-78
2023/06/16 03:40:48;;;;;;;3.72;2.83;;;;;22.90;101769.00;;;;5089321;28;20190;-78
2023/06/16 03:43:15;;;;;;;4.32;3.20;;;;;22.90;101774.00;;;;5088300;28;20202;-78
2023/06/16 03:45:42;;;;;;;5.60;3.25;;;;;22.90;101778.00;;;;5072359;28;20206;-78
2023/06/16 03:48:10;;;;;;;4.18;2.90;;;;;22.80;101777.00;;;;5088783;28;20197;-78
2023/06/16 03:50:37;;;;;;;4.28;2.95;;;;;22.80;101772.00;;;;5088726;28;20197;-78
2023/06/16 03:53:04;;;;;;;3.55;2.75;;;;;22.80;101773.00;;;;5089223;28;20206;-78
2023/06/16 03:55:33;;;;;;;4.47;3.17;;;;;22.80;101776.00;;;;5086156;28;20222;-78
2023/06/16 03:58:00;;;;;;;4.30;3.20;;;;;22.80;101778.00;;;;5088544;28;20725;-78
2023/06/16 04:00:28;;;;;;;4.47;3.55;;;;;22.80;101777.00;;;;5087922;28;20205;-78
2023/06/16 04:02:55;;;;;;;3.60;3.08;;;;;22.80;101775.00;;;;5083255;28;20191;-78
2023/06/16 04:05:23;;;;;;;3.58;2.75;;;;;22.80;101769.00;;;;5087137;28;20194;-78
2023/06/16 04:07:51;;;;;;;4.95;3.38;;;;;22.80;101773.00;;;;5085236;28;20644;-78
2023/06/16 04:10:18;;;;;;;3.83;3.25;;;;;22.80;101775.00;;;;5087416;28;20247;-78
2023/06/16 04:12:47;;;;;;;4.43;3.17;;;;;22.70;101777.00;;;;5087945;28;20199;-78
2023/06/16 04:15:14;;;;;;;4.88;3.13;;;;;22.70;101780.00;;;;5086828;28;20232;-78
2023/06/16 04:17:42;;;;;;;3.45;3.10;;;;;22.70;101780.00;;;;5086917;28;20201;-78
2023/06/16 04:20:11;;;;;;;3.65;2.60;;;;;22.70;101771.00;;;;5081827;28;20198;-78
2023/06/16 04:22:38;;;;;;;3.03;2.58;;;;;22.70;101782.00;;;;5087132;28;20263;-78
2023/06/16 04:25:09;;;;;;;4.28;3.00;;;;;22.70;101788.00;;;;5086997;28;20679;-78
2023/06/16 04:27:37;;;;;;;4.45;3.17;;;;;22.70;101784.00;;;;5085887;28;20725;-78
2023/06/16 04:30:07;;;;;;;4.80;2.90;;;;;22.60;101781.00;;;;5085833;28;20225;-78
2023/06/16 04:32:36;;;;;;;3.22;2.55;;;;;22.70;101786.00;;;;5085729;28;20721;-78
2023/06/16 04:35:04;;;;;;;9.75;3.10;;;;;22.70;101784.00;;;;5082349;28;20767;-78
2023/06/16 04:37:32;;;;;;;2.90;2.60;;;;;22.70;101782.00;;;;5074230;28;20608;-78
2023/06/16 04:40:00;;;;;;;4.88;3.20;;;;;22.70;101781.00;;;;5083455;28;20652;-78
2023/06/16 04:42:28;;;;;;;4.03;3.10;;;;;22.70;101787.00;;;;5087186;28;20194;-78
2023/06/16 04:44:55;;;;;;;4.03;2.80;;;;;22.70;101785.00;;;;5089829;28;20209;-78
2023/06/16 04:47:24;;;;;;;3.47;2.80;;;;;22.70;101787.00;;;;5090484;28;20190;-78
2023/06/16 04:49:51;;;;;;;3.63;2.95;;;;;22.70;101784.00;;;;5091532;28;20685;-78
2023/06/16 04:52:18;;;;;;;3.38;2.85;;;;;22.80;101790.00;;;;5086038;28;20194;-78
2023/06/16 04:54:46;;;;;;;3.90;2.80;;;;;22.80;101787.00;;;;5091449;28;20710;-79
2023/06/16 04:57:13;;;;;;;4.93;3.30;;;;;22.80;101787.00;;;;5089787;28;20198;-78
2023/06/16 04:59:40;;;;;;;7.65;3.22;;;;;22.90;101784.00;;;;5089753;28;20567;-79
2023/06/16 05:02:08;;;;;;;4.47;3.08;;;;;22.90;101787.00;;;;5090772;28;20546;-78
2023/06/16 05:04:42;;;;;;;4.72;3.05;;;;;22.90;101793.00;;;;5091540;28;20194;-78
2023/06/16 05:07:10;;;;;;;3.45;2.90;;;;;23.00;101789.00;;;;5084936;28;20288;-78
2023/06/16 05:09:38;;;;;;;3.90;2.92;;;;;23.10;101787.00;;;;5082678;28;20253;-78
2023/06/16 05:12:06;;;;;;;4.25;3.05;;;;;23.10;101789.00;;;;5093714;28;20285;-78
2023/06/16 05:14:34;;;;;;;2.50;2.30;;;;;23.20;101788.00;;;;5087968;28;20218;-79
2023/06/16 05:17:01;;;;;;;5.22;2.75;;;;;23.20;101793.00;;;;5090945;28;20543;-78
2023/06/16 05:19:30;;;;;;;3.10;2.50;;;;;23.30;101801.00;;;;5086388;28;20198;-77
2023/06/16 05:21:58;;;;;;;2.53;2.30;;;;;23.40;101802.00;;;;5091344;28;20193;-78
2023/06/16 05:24:26;;;;;;;4.18;2.83;;;;;23.40;101799.00;;;;5090550;28;20194;-78
2023/06/16 05:26:53;;;;;;;4.00;2.70;;;;;23.50;101804.00;;;;5089847;28;20198;-79
2023/06/16 05:29:20;;;;;;;3.58;3.28;;;;;23.50;101805.00;;;;5088887;28;20289;-79
2023/06/16 05:31:48;;;;;;;4.88;2.88;;;;;23.60;101803.00;;;;5088840;28;20226;-80
2023/06/16 05:34:15;;;;;;;3.22;2.85;;;;;23.70;101802.00;;;;5089604;28;20190;-80
2023/06/16 05:36:42;;;;;;;3.75;3.30;;;;;23.70;101803.00;;;;5090881;28;20664;-79
2023/06/16 05:39:12;;;;;;;4.85;3.13;;;;;23.80;101806.00;;;;5087520;28;20202;-76
2023/06/16 05:41:39;;;;;;;3.25;2.75;;;;;23.90;101810.00;;;;5087936;28;20195;-76
2023/06/16 05:44:07;;;;;;;5.68;3.22;;;;;23.90;101805.00;;;;5090197;28;20191;-76
2023/06/16 05:46:35;;;;;;;3.90;3.03;;;;;24.00;101808.00;;;;5090018;28;20202;-76
2023/06/16 05:49:02;;;;;;;3.70;2.63;;;;;24.10;101803.00;;;;5090648;28;20195;-76
2023/06/16 05:51:29;;;;;;;2.63;2.42;;;;;24.20;101815.00;;;;5088037;28;20205;-76
2023/06/16 05:53:57;;;;;;;4.25;2.88;;;;;24.30;101816.00;;;;5083515;28;20637;-78
2023/06/16 05:56:26;;;;;;;6.07;3.30;;;;;24.30;101812.00;;;;5080542;28;20236;-77
2023/06/16 05:58:53;;;;;;;3.85;2.92;;;;;24.40;101814.00;;;;5082958;28;20190;-77
2023/06/16 06:01:21;;;;;;;2.95;2.65;;;;;24.50;101826.00;;;;5086686;28;20202;-77
2023/06/16 06:03:48;;;;;;;9.85;3.15;;;;;24.60;101814.00;;;;5082893;28;20198;-77
2023/06/16 06:06:16;;;;;;;3.75;2.40;;;;;24.70;101825.00;;;;5081919;28;20222;-78
2023/06/16 06:08:43;;;;;;;3.25;2.30;;;;;24.70;101817.00;;;;5087468;28;20202;-78
2023/06/16 06:11:11;;;;;;;3.85;2.75;;;;;24.80;101825.00;;;;5090430;28;20209;-78
2023/06/16 06:13:40;;;;;;;3.05;2.75;;;;;24.90;101823.00;;;;5088417;28;20201;-78
2023/06/16 06:16:07;;;;;;;3.05;2.60;;;;;25.00;101824.00;;;;5090963;28;20225;-78
2023/06/16 06:18:34;;;;;;;5.65;2.78;;;;;25.10;101830.00;;;;5089273;28;20687;-78
2023/06/16 06:21:02;;;;;;;3.58;2.58;;;;;25.20;101831.00;;;;5088468;28;20572;-78
2023/06/16 06:23:29;;;;;;;3.92;2.45;;;;;25.30;101831.00;;;;5086787;28;20202;-78
2023/06/16 06:25:56;;;;;;;4.13;2.70;;;;;25.30;101836.00;;;;5088964;28;20196;-78
2023/06/16 06:28:24;;;;;;;3.15;2.85;;;;;25.40;101830.00;;;;5087832;28;20288;-78
2023/06/16 06:30:53;;;;;;;5.45;2.80;;;;;25.50;101830.00;;;;5090229;28;20222;-78
2023/06/16 06:33:20;;;;;;;4.07;2.58;;;;;25.60;101839.00;;;;5088261;28;20190;-77
2023/06/16 06:35:47;;;;;;;4.38;2.80;;;;;25.70;101839.00;;;;5084168;28;20225;-78
2023/06/16 06:38:15;;;;;;;4.30;2.72;;;;;25.70;101840.00;;;;5087566;28;20195;-78
2023/06/16 06:40:42;;;;;;;3.28;2.78;;;;;25.80;101842.00;;;;5081372;28;20221;-77
2023/06/16 06:43:11;;;;;;;5.10;2.72;;;;;25.90;101850.00;;;;5090522;28;20199;-77
2023/06/16 06:45:38;;;;;;;7.80;2.58;;;;;26.00;101840.00;;;;5088485;28;21306;-77
2023/06/16 06:48:07;;;;;;;4.72;2.47;;;;;26.10;101841.00;;;;5089611;28;20660;-78
2023/06/16 06:50:34;;;;;;;3.25;2.50;;;;;26.20;101838.00;;;;5085268;28;20214;-77
2023/06/16 06:53:02;;;;;;;3.75;2.78;;;;;26.30;101840.00;;;;5088872;28;20209;-78
2023/06/16 06:55:29;;;;;;;3.15;2.50;;;;;26.40;101844.00;;;;5086848;28;20225;-77
2023/06/16 06:57:56;;;;;;;3.13;2.25;;;;;26.40;101837.00;;;;5088854;28;20194;-78
2023/06/16 07:00:24;;;;;;;2.95;2.08;;;;;26.60;101841.00;;;;5089028;28;20202;-79
2023/06/16 07:02:51;;;;;;;3.17;2.20;;;;;26.60;101842.00;;;;5088089;28;20206;-77
2023/06/16 07:05:19;;;;;;;5.50;2.78;;;;;26.70;101835.00;;;;5083320;28;20194;-78
2023/06/16 07:07:47;;;;;;;2.50;2.30;;;;;26.90;101836.00;;;;5086922;28;20778;-77
2023/06/16 07:10:14;;;;;;;5.20;2.92;;;;;27.00;101841.00;;;;5074583;28;20205;-77
2023/06/16 07:12:41;;;;;;;3.10;2.28;;;;;27.10;101839.00;;;;5089545;28;20205;-78
2023/06/16 07:15:10;;;;;;;4.13;2.38;;;;;27.20;101842.00;;;;5089535;28;20225;-77
2023/06/16 07:17:37;;;;;;;3.40;2.90;;;;;27.30;101840.00;;;;5088974;28;20206;-77
2023/06/16 07:20:05;;;;;;;2.70;2.28;;;;;27.30;101841.00;;;;5087655;28;20202;-77
2023/06/16 07:22:34;;;;;;;2.92;1.77;;;;;27.50;101844.00;;;;5088573;28;20892;-77
2023/06/16 07:25:01;;;;;;;2.90;2.53;;;;;27.60;101847.00;;;;5086152;28;20203;-77
2023/06/16 07:27:29;;;;;;;2.42;1.90;;;;;27.70;101843.00;;;;5086200;28;20209;-77
2023/06/16 07:29:56;;;;;;;2.60;2.10;;;;;27.80;101850.00;;;;5088013;28;20190;-77
2023/06/16 07:32:23;;;;;;;3.00;2.50;;;;;27.90;101842.00;;;;5087127;28;20229;-77
2023/06/16 07:34:52;;;;;;;3.08;2.30;;;;;28.00;101845.00;;;;5083695;28;20209;-76
2023/06/16 07:37:20;;;;;;;5.63;2.60;;;;;28.10;101841.00;;;;5088491;28;20213;-77
2023/06/16 07:39:48;;;;;;;3.78;2.53;;;;;28.20;101842.00;;;;5088826;28;20278;-77
2023/06/16 07:42:16;;;;;;;3.40;2.53;;;;;28.30;101842.00;;;;5070068;28;20661;-77
2023/06/16 07:44:43;;;;;;;3.75;2.22;;;;;28.40;101850.00;;;;5086032;28;20944;-77
2023/06/16 07:47:11;;;;;;;5.45;2.80;;;;;28.50;101843.00;;;;5085368;28;20194;-77
2023/06/16 07:49:38;;;;;;;2.30;1.98;;;;;28.60;101841.00;;;;5086671;28;20209;-77
2023/06/16 07:52:06;;;;;;;2.33;2.13;;;;;28.70;101841.00;;;;5089057;28;20198;-77
2023/06/16 07:54:33;;;;;;;2.90;2.53;;;;;28.80;101836.00;;;;5087721;28;20202;-77
2023/06/16 07:57:02;;;;;;;4.15;2.35;;;;;28.90;101843.00;;;;5087623;28;20711;-77
2023/06/16 07:59:29;;;;;;;2.50;2.00;;;;;29.00;101839.00;;;;5081621;28;20213;-77
2023/06/16 08:01:57;;;;;;;4.53;2.00;;;;;29.10;101849.00;;;;5085996;28;20198;-78
2023/06/16 08:04:29;;;;;;;2.45;2.13;;;;;29.20;101843.00;;;;5067441;28;20207;-77
2023/06/16 08:06:57;;;;;;;3.03;2.58;;;;;29.30;101844.00;;;;5085470;28;20217;-78
2023/06/16 08:09:24;;;;;;;3.03;2.72;;;;;29.40;101839.00;;;;5087740;28;20737;-77
2023/06/16 08:11:52;;;;;;;2.80;2.25;;;;;29.50;101842.00;;;;5088517;28;20668;-77
2023/06/16 08:14:22;;;;;;;3.45;2.35;;;;;29.60;101841.00;;;;5087492;28;20281;-78
2023/06/16 08:16:49;;;;;;;2.80;2.28;;;;;29.70;101841.00;;;;5075065;28;20222;-77
2023/06/16 08:19:16;;;;;;;4.95;2.25;;;;;29.80;101834.00;;;;5084196;28;20195;-77
2023/06/16 08:21:44;;;;;;;4.75;2.45;;;;;29.90;101838.00;;;;5088564;28;20224;-77
2023/06/16 08:24:11;;;;;;;3.95;2.20;;;;;30.00;101832.00;;;;5089431;28;20194;-77
2023/06/16 08:26:38;;;;;;;5.32;2.53;;;;;30.10;101833.00;;;;5087987;28;20198;-77
2023/06/16 08:29:06;;;;;;;3.10;2.53;;;;;30.10;101832.00;;;;5088536;28;20189;-76
2023/06/16 08:31:34;;;;;;;5.90;2.50;;;;;30.20;101833.00;;;;5087170;28;20229;-77
2023/06/16 08:34:02;;;;;;;5.10;1.95;;;;;30.30;101833.00;;;;5084862;28;20724;-77
2023/06/16 08:36:29;;;;;;;4.20;2.70;;;;;30.40;101832.00;;;;5087876;28;20221;-77
2023/06/16 08:38:57;;;;;;;6.95;2.67;;;;;30.50;101832.00;;;;5088913;28;20190;-77
2023/06/16 08:41:26;;;;;;;5.32;2.53;;;;;30.60;101824.00;;;;5086904;28;20199;-77
2023/06/16 08:43:54;;;;;;;8.95;2.40;;;;;30.70;101834.00;;;;5072849;28;20190;-77
2023/06/16 08:46:23;;;;;;;2.80;2.40;;;;;30.80;101831.00;;;;5088101;28;20273;-77
2023/06/16 08:48:52;;;;;;;5.97;2.40;;;;;30.90;101831.00;;;;5087157;28;20253;-77
2023/06/16 08:51:23;;;;;;;5.78;2.63;;;;;31.00;101828.00;;;;5074882;28;20256;-77
2023/06/16 08:53:57;;;;;;;9.00;2.65;;;;;31.00;101826.00;;;;5088914;28;20212;-77
2023/06/16 08:56:26;;;;;;;7.72;2.95;;;;;31.10;101823.00;;;;5087160;28;20699;-77
2023/06/16 08:58:54;;;;;;;4.28;2.25;;;;;31.20;101821.00;;;;5085995;28;20552;-76
2023/06/16 09:01:22;;;;;;;13.32;3.33;;;;;31.30;101821.00;;;;5085718;28;20190;-77
2023/06/16 09:03:53;;;;;;;6.13;2.88;;;;;31.30;101820.00;;;;5085269;28;20201;-76
2023/06/16 09:06:20;;;;;;;7.93;2.70;;;;;31.40;101824.00;;;;5083491;28;20682;-76
2023/06/16 09:08:47;;;;;;;4.30;2.15;;;;;31.50;101818.00;;;;5084050;28;20225;-76
2023/06/16 09:11:23;;;;;;;7.85;2.60;;;;;31.50;101823.00;;;;5085457;28;20186;-77
2023/06/16 09:13:52;;;;;;;7.53;2.55;;;;;31.70;101829.00;;;;5079711;28;20205;-76
2023/06/16 09:16:21;;;;;;;10.82;2.72;;;;;31.80;101830.00;;;;5082821;28;20630;-77
2023/06/16 09:18:49;;;;;;;7.72;3.25;;;;;31.90;101832.00;;;;5081659;28;20207;-76
2023/06/16 09:21:22;;;;;;;7.97;2.85;;;;;31.90;101828.00;;;;5084321;28;20198;-76
2023/06/16 09:23:57;;;;;;;6.53;2.80;;;;;32.00;101829.00;;;;5082760;28;20206;-76
2023/06/16 09:26:29;;;;;;;5.32;2.33;;;;;32.20;101832.00;;;;5078146;28;20256;-77
2023/06/16 09:28:57;;;;;;;3.47;2.53;;;;;32.20;101828.00;;;;5081502;28;20195;-77
2023/06/16 09:31:27;;;;;;;4.45;2.17;;;;;32.30;101827.00;;;;5082438;28;20702;-77
2023/06/16 09:34:03;;;;;;;5.72;2.20;;;;;32.40;101829.00;;;;5085226;28;20603;-77
2023/06/16 09:36:32;;;;;;;2.63;2.30;;;;;32.50;101826.00;;;;5087641;28;20213;-76
2023/06/16 09:39:00;;;;;;;13.57;2.95;;;;;32.60;101826.00;;;;5083390;28;20546;-77
2023/06/16 09:41:27;;;;;;;6.40;2.28;;;;;32.70;101824.00;;;;5081224;28;20229;-76
2023/06/16 09:44:00;;;;;;;2.90;2.40;;;;;32.70;101818.00;;;;5083083;28;20194;-77
2023/06/16 09:46:28;;;;;;;3.58;2.33;;;;;32.90;101815.00;;;;5082506;28;20259;-77
2023/06/16 09:48:55;;;;;;;3.70;2.28;;;;;33.00;101825.00;;;;5083815;28;20202;-77
2023/06/16 09:51:23;;;;;;;3.95;2.60;;;;;33.00;101827.00;;;;5083705;28;20190;-78
2023/06/16 09:53:53;;;;;;;2.45;1.90;;;;;33.10;101820.00;;;;5086497;28;20275;-77
2023/06/16 09:56:21;;;;;;;4.85;2.28;;;;;33.10;101815.00;;;;5084572;28;20276;-77
2023/06/16 09:58:49;;;;;;;2.83;1.95;;;;;33.20;101814.00;;;;5079368;28;20209;-77
2023/06/16 10:01:19;;;;;;;5.45;2.53;;;;;33.30;101818.00;;;;5086201;28;20194;-77
2023/06/16 10:03:51;;;;;;;3.20;2.08;;;;;33.30;101818.00;;;;5087185;28;20280;-78
2023/06/16 10:06:20;;;;;;;5.07;2.55;;;;;33.30;101811.00;;;;5088381;28;20232;-78
2023/06/16 10:08:49;;;;;;;8.45;2.60;;;;;33.40;101816.00;;;;5089253;28;20206;-78
2023/06/16 10:11:19;;;;;;;3.85;2.67;;;;;33.40;101815.00;;;;5089763;28;20201;-78
2023/06/16 10:13:51;;;;;;;3.15;2.35;;;;;33.40;101806.00;;;;5090677;28;20199;-75
2023/06/16 10:16:21;;;;;;;2.92;2.13;;;;;33.50;101807.00;;;;5078220;28;20222;-75
2023/06/16 10:18:50;;;;;;;4.47;2.35;;;;;33.50;101813.00;;;;5087644;28;20219;-75
2023/06/16 10:21:18;;;;;;;4.47;3.03;;;;;33.60;101812.00;;;;5090357;28;20202;-75
2023/06/16 10:23:45;;;;;;;14.50;2.50;;;;;33.60;101800.00;;;;5090130;28;20648;-75
2023/06/16 10:26:14;;;;;;;3.83;2.38;;;;;33.60;101805.00;;;;5090512;28;20204;-79
2023/06/16 10:28:43;;;;;;;8.35;3.03;;;;;33.50;101808.00;;;;5087756;28;20194;-77
2023/06/16 10:31:14;;;;;;;2.92;2.20;;;;;33.50;101804.00;;;;5090880;28;20237;-78
2023/06/16 10:33:53;;;;;;;5.55;2.42;;;;;33.40;101804.00;;;;5086493;28;20194;-77
2023/06/16 10:36:24;;;;;;;3.88;2.55;;;;;33.50;101807.00;;;;5086611;28;20475;-77
2023/06/16 10:39:03;;;;;;;5.75;2.63;;;;;33.50;101798.00;;;;5090918;28;20193;-77
2023/06/16 10:41:31;;;;;;;2.53;2.33;;;;;33.60;101804.00;;;;5090127;28;20200;-77
2023/06/16 10:44:22;;;;;;;5.38;2.60;;;;;33.60;101799.00;;;;5090641;28;20200;-77
2023/06/16 10:47:37;;;;;;;4.90;2.70;;;;;33.70;101789.00;;;;5090341;28;20198;-77
2023/06/16 10:50:05;;;;;;;2.05;1.83;;;;;33.90;101787.00;;;;5084653;28;20194;-77
2023/06/16 10:52:54;;;;;;;2.53;2.33;;;;;33.80;101791.00;;;;5085641;28;20235;-77
2023/06/16 10:55:33;;;;;;;2.55;2.13;;;;;33.90;101781.00;;;;5087381;28;20194;-78
2023/06/16 10:58:24;;;;;;;2.40;2.20;;;;;34.00;101781.00;;;;5089215;28;20221;-77
2023/06/16 11:01:14;;;;;;;5.93;2.83;;;;;34.10;101780.00;;;;5076055;28;20282;-78
2023/06/16 11:03:45;;;;;;;2.95;2.33;;;;;34.20;101788.00;;;;5083283;28;20201;-77
2023/06/16 11:06:13;;;;;;;3.28;2.35;;;;;34.30;101792.00;;;;5075818;28;20214;-77
2023/06/16 11:08:51;;;;;;;3.67;2.65;;;;;34.20;101783.00;;;;5074340;28;20289;-76
2023/06/16 11:11:18;;;;;;;2.78;2.50;;;;;34.20;101778.00;;;;5084162;28;20232;-77
2023/06/16 11:13:46;;;;;;;3.63;3.08;;;;;34.10;101779.00;;;;5082972;28;20194;-77
2023/06/16 11:16:15;;;;;;;4.32;3.17;;;;;34.00;101780.00;;;;5079289;28;20228;-78
2023/06/16 11:18:44;;;;;;;2.65;2.10;;;;;33.90;101777.00;;;;5084682;28;20258;-77
2023/06/16 11:21:11;;;;;;;4.50;2.55;;;;;33.70;101777.00;;;;5082454;28;20194;-77
2023/06/16 11:23:38;;;;;;;3.42;2.55;;;;;33.60;101787.00;;;;5080882;28;20582;-77
2023/06/16 11:26:08;;;;;;;3.03;2.40;;;;;33.50;101777.00;;;;5086440;28;20206;-77
2023/06/16 11:28:40;;;;;;;4.07;2.47;;;;;33.40;101775.00;;;;5086710;28;20213;-77
2023/06/16 11:31:07;;;;;;;2.60;2.35;;;;;33.40;101784.00;;;;5086964;28;20718;-79
2023/06/16 11:33:39;;;;;;;3.60;2.30;;;;;33.30;101778.00;;;;5087668;28;20209;-76
2023/06/16 11:36:17;;;;;;;2.75;2.35;;;;;33.20;101784.00;;;;5088990;28;20198;-77
2023/06/16 11:38:46;;;;;;;2.50;2.30;;;;;33.20;101782.00;;;;5087973;28;20288;-76
2023/06/16 11:41:17;;;;;;;3.25;2.13;;;;;33.10;101777.00;;;;5082568;28;20207;-76
2023/06/16 11:43:46;;;;;;;3.25;2.00;;;;;33.00;101783.00;;;;5083943;28;20201;-76
2023/06/16 11:46:14;;;;;;;2.35;2.15;;;;;32.90;101776.00;;;;5078922;28;20281;-76
2023/06/16 11:48:43;;;;;;;4.80;3.10;;;;;32.80;101770.00;;;;5067956;28;20447;-76
2023/06/16 11:51:11;;;;;;;2.95;2.20;;;;;32.80;101771.00;;;;5076141;28;20194;-76
2023/06/16 11:53:40;;;;;;;2.70;2.45;;;;;32.70;101770.00;;;;5081321;28;20183;-76
2023/06/16 11:56:08;;;;;;;2.45;2.25;;;;;32.80;101761.00;;;;5081051;28;20190;-76
2023/06/16 11:58:36;;;;;;;2.90;2.50;;;;;32.80;101758.00;;;;5086081;28;20248;-76
2023/06/16 12:01:04;;;;;;;3.22;2.22;;;;;32.90;101766.00;;;;5085087;28;20186;-76
2023/06/16 12:03:35;;;;;;;3.55;2.08;;;;;33.00;101762.00;;;;5085500;28;20194;-76
2023/06/16 12:06:05;;;;;;;2.30;2.10;;;;;33.00;101767.00;;;;5076309;28;20703;-76
2023/06/16 12:08:44;;;;;;;3.28;1.98;;;;;33.00;101763.00;;;;5085761;28;20197;-77
2023/06/16 12:11:15;;;;;;;3.15;2.28;;;;;33.10;101760.00;;;;5085817;28;20308;-76
2023/06/16 12:13:42;;;;;;;2.15;1.95;;;;;33.10;101763.00;;;;5083235;28;20284;-76
2023/06/16 12:16:12;;;;;;;2.42;2.00;;;;;33.10;101765.00;;;;5083897;28;20198;-77
2023/06/16 12:18:39;;;;;;;3.40;2.25;;;;;33.10;101758.00;;;;5086252;28;20202;-77